sensor_id;sensor_type;location;lat;lon;timestamp;P1;durP1;ratioP1;P2;durP2;ratioP2
84616;SDS011;74846;51.126;16.944;2024-03-08T00:00:34;51.10;;;19.50;;
84616;SDS011;74846;51.126;16.944;2024-03-08T00:03:21;47.60;;;19.30;;
84616;SDS011;74846;51.126;16.944;2024-03-08T00:05:47;57.30;;;19.30;;
84616;SDS011;74846;51.126;16.944;2024-03-08T00:08:14;52.70;;;19.00;;
84616;SDS011;74846;51.126;16.944;2024-03-08T00:10:41;38.50;;;15.20;;
84616;SDS011;74846;51.126;16.944;2024-03-08T00:13:08;53.00;;;22.30;;
84616;SDS011;74846;51.126;16.944;2024-03-08T00:15:34;51.50;;;19.10;;
84616;SDS011;74846;51.126;16.944;2024-03-08T00:18:01;56.90;;;22.90;;
84616;SDS011;74846;51.126;16.944;2024-03-08T00:20:28;65.40;;;22.60;;
84616;SDS011;74846;51.126;16.944;2024-03-08T00:22:54;60.90;;;21.90;;
84616;SDS011;74846;51.126;16.944;2024-03-08T00:25:24;63.00;;;23.40;;
84616;SDS011;74846;51.126;16.944;2024-03-08T00:27:51;55.70;;;22.00;;
84616;SDS011;74846;51.126;16.944;2024-03-08T00:30:17;59.80;;;23.30;;
84616;SDS011;74846;51.126;16.944;2024-03-08T00:32:44;55.60;;;23.10;;
84616;SDS011;74846;51.126;16.944;2024-03-08T00:35:11;62.50;;;21.70;;
84616;SDS011;74846;51.126;16.944;2024-03-08T00:37:38;65.60;;;21.90;;
84616;SDS011;74846;51.126;16.944;2024-03-08T00:40:05;57.10;;;22.90;;
84616;SDS011;74846;51.126;16.944;2024-03-08T00:42:33;55.00;;;20.10;;
84616;SDS011;74846;51.126;16.944;2024-03-08T00:44:59;48.80;;;22.90;;
84616;SDS011;74846;51.126;16.944;2024-03-08T00:47:26;54.50;;;22.20;;
84616;SDS011;74846;51.126;16.944;2024-03-08T00:49:53;57.40;;;22.60;;
84616;SDS011;74846;51.126;16.944;2024-03-08T00:52:22;54.00;;;20.70;;
84616;SDS011;74846;51.126;16.944;2024-03-08T00:54:50;53.90;;;21.70;;
84616;SDS011;74846;51.126;16.944;2024-03-08T00:57:17;60.00;;;22.80;;
84616;SDS011;74846;51.126;16.944;2024-03-08T00:59:43;56.80;;;21.30;;
84616;SDS011;74846;51.126;16.944;2024-03-08T01:02:10;63.20;;;23.60;;
84616;SDS011;74846;51.126;16.944;2024-03-08T01:04:37;61.70;;;24.50;;
84616;SDS011;74846;51.126;16.944;2024-03-08T01:07:03;54.80;;;22.40;;
84616;SDS011;74846;51.126;16.944;2024-03-08T01:09:30;56.50;;;20.90;;
84616;SDS011;74846;51.126;16.944;2024-03-08T01:11:57;61.20;;;23.20;;
84616;SDS011;74846;51.126;16.944;2024-03-08T01:14:24;57.80;;;22.90;;
84616;SDS011;74846;51.126;16.944;2024-03-08T01:16:57;58.50;;;21.90;;
84616;SDS011;74846;51.126;16.944;2024-03-08T01:19:24;58.00;;;22.50;;
84616;SDS011;74846;51.126;16.944;2024-03-08T01:21:51;58.60;;;22.90;;
84616;SDS011;74846;51.126;16.944;2024-03-08T01:24:19;57.90;;;23.80;;
84616;SDS011;74846;51.126;16.944;2024-03-08T01:26:46;59.60;;;21.90;;
84616;SDS011;74846;51.126;16.944;2024-03-08T01:29:13;54.30;;;20.90;;
84616;SDS011;74846;51.126;16.944;2024-03-08T01:31:40;57.60;;;21.80;;
84616;SDS011;74846;51.126;16.944;2024-03-08T01:34:06;59.20;;;20.60;;
84616;SDS011;74846;51.126;16.944;2024-03-08T01:36:33;54.10;;;22.00;;
84616;SDS011;74846;51.126;16.944;2024-03-08T01:39:00;60.00;;;22.30;;
84616;SDS011;74846;51.126;16.944;2024-03-08T01:41:26;65.00;;;22.10;;
84616;SDS011;74846;51.126;16.944;2024-03-08T01:43:55;66.00;;;23.40;;
84616;SDS011;74846;51.126;16.944;2024-03-08T01:46:22;58.40;;;22.40;;
84616;SDS011;74846;51.126;16.944;2024-03-08T01:48:49;53.90;;;22.30;;
84616;SDS011;74846;51.126;16.944;2024-03-08T01:51:20;63.10;;;22.50;;
84616;SDS011;74846;51.126;16.944;2024-03-08T01:53:47;58.00;;;24.40;;
84616;SDS011;74846;51.126;16.944;2024-03-08T01:56:15;63.00;;;22.90;;
84616;SDS011;74846;51.126;16.944;2024-03-08T01:58:42;59.60;;;23.40;;
84616;SDS011;74846;51.126;16.944;2024-03-08T02:01:11;66.70;;;23.70;;
84616;SDS011;74846;51.126;16.944;2024-03-08T02:03:40;75.00;;;26.70;;
84616;SDS011;74846;51.126;16.944;2024-03-08T02:06:12;53.70;;;21.70;;
84616;SDS011;74846;51.126;16.944;2024-03-08T02:08:43;57.30;;;21.70;;
84616;SDS011;74846;51.126;16.944;2024-03-08T02:11:10;64.10;;;25.70;;
84616;SDS011;74846;51.126;16.944;2024-03-08T02:13:38;67.70;;;24.00;;
84616;SDS011;74846;51.126;16.944;2024-03-08T02:16:05;63.20;;;23.10;;
84616;SDS011;74846;51.126;16.944;2024-03-08T02:18:34;58.40;;;22.30;;
84616;SDS011;74846;51.126;16.944;2024-03-08T02:21:02;61.30;;;21.90;;
84616;SDS011;74846;51.126;16.944;2024-03-08T02:23:30;56.50;;;23.40;;
84616;SDS011;74846;51.126;16.944;2024-03-08T02:25:58;63.00;;;23.20;;
84616;SDS011;74846;51.126;16.944;2024-03-08T02:28:25;61.50;;;22.10;;
84616;SDS011;74846;51.126;16.944;2024-03-08T02:30:52;58.00;;;21.50;;
84616;SDS011;74846;51.126;16.944;2024-03-08T02:33:22;56.50;;;21.40;;
84616;SDS011;74846;51.126;16.944;2024-03-08T02:35:50;52.70;;;20.10;;
84616;SDS011;74846;51.126;16.944;2024-03-08T02:38:18;67.10;;;23.40;;
84616;SDS011;74846;51.126;16.944;2024-03-08T02:40:46;63.60;;;23.70;;
84616;SDS011;74846;51.126;16.944;2024-03-08T02:43:14;77.10;;;26.40;;
84616;SDS011;74846;51.126;16.944;2024-03-08T02:45:42;70.00;;;23.40;;
84616;SDS011;74846;51.126;16.944;2024-03-08T02:48:10;68.80;;;26.90;;
84616;SDS011;74846;51.126;16.944;2024-03-08T02:50:37;64.90;;;25.90;;
84616;SDS011;74846;51.126;16.944;2024-03-08T02:53:06;62.30;;;23.00;;
84616;SDS011;74846;51.126;16.944;2024-03-08T02:55:32;51.20;;;22.30;;
84616;SDS011;74846;51.126;16.944;2024-03-08T02:58:02;54.50;;;22.10;;
84616;SDS011;74846;51.126;16.944;2024-03-08T03:00:30;60.10;;;23.20;;
84616;SDS011;74846;51.126;16.944;2024-03-08T03:02:58;56.40;;;22.80;;
84616;SDS011;74846;51.126;16.944;2024-03-08T03:05:25;64.80;;;23.90;;
84616;SDS011;74846;51.126;16.944;2024-03-08T03:07:52;62.20;;;21.80;;
84616;SDS011;74846;51.126;16.944;2024-03-08T03:10:18;62.90;;;21.60;;
84616;SDS011;74846;51.126;16.944;2024-03-08T03:12:45;60.50;;;22.10;;
84616;SDS011;74846;51.126;16.944;2024-03-08T03:15:12;63.80;;;23.90;;
84616;SDS011;74846;51.126;16.944;2024-03-08T03:17:39;56.30;;;21.80;;
84616;SDS011;74846;51.126;16.944;2024-03-08T03:20:07;60.90;;;22.60;;
84616;SDS011;74846;51.126;16.944;2024-03-08T03:22:39;63.40;;;21.00;;
84616;SDS011;74846;51.126;16.944;2024-03-08T03:25:13;68.80;;;24.20;;
84616;SDS011;74846;51.126;16.944;2024-03-08T03:27:40;62.50;;;24.70;;
84616;SDS011;74846;51.126;16.944;2024-03-08T03:30:08;57.60;;;20.90;;
84616;SDS011;74846;51.126;16.944;2024-03-08T03:32:50;48.30;;;18.30;;
84616;SDS011;74846;51.126;16.944;2024-03-08T03:35:21;55.30;;;22.40;;
84616;SDS011;74846;51.126;16.944;2024-03-08T03:37:48;55.40;;;21.20;;
84616;SDS011;74846;51.126;16.944;2024-03-08T03:40:28;38.00;;;15.00;;
84616;SDS011;74846;51.126;16.944;2024-03-08T03:42:55;48.70;;;18.60;;
84616;SDS011;74846;51.126;16.944;2024-03-08T03:45:22;56.80;;;20.80;;
84616;SDS011;74846;51.126;16.944;2024-03-08T03:47:50;54.80;;;19.70;;
84616;SDS011;74846;51.126;16.944;2024-03-08T03:50:17;53.90;;;20.00;;
84616;SDS011;74846;51.126;16.944;2024-03-08T03:52:48;57.70;;;21.40;;
84616;SDS011;74846;51.126;16.944;2024-03-08T03:55:14;52.90;;;20.50;;
84616;SDS011;74846;51.126;16.944;2024-03-08T03:57:41;47.00;;;17.60;;
84616;SDS011;74846;51.126;16.944;2024-03-08T04:00:08;38.30;;;15.60;;
84616;SDS011;74846;51.126;16.944;2024-03-08T04:02:38;43.80;;;18.00;;
84616;SDS011;74846;51.126;16.944;2024-03-08T04:05:08;55.30;;;18.20;;
84616;SDS011;74846;51.126;16.944;2024-03-08T04:07:36;52.80;;;21.40;;
84616;SDS011;74846;51.126;16.944;2024-03-08T04:10:05;58.30;;;22.10;;
84616;SDS011;74846;51.126;16.944;2024-03-08T04:12:33;53.70;;;20.70;;
84616;SDS011;74846;51.126;16.944;2024-03-08T04:15:00;56.80;;;22.40;;
84616;SDS011;74846;51.126;16.944;2024-03-08T04:17:28;52.00;;;20.70;;
84616;SDS011;74846;51.126;16.944;2024-03-08T04:19:55;47.30;;;16.90;;
84616;SDS011;74846;51.126;16.944;2024-03-08T04:22:22;45.30;;;16.80;;
84616;SDS011;74846;51.126;16.944;2024-03-08T04:24:48;46.40;;;18.80;;
84616;SDS011;74846;51.126;16.944;2024-03-08T04:27:15;53.40;;;21.70;;
84616;SDS011;74846;51.126;16.944;2024-03-08T04:29:42;62.10;;;23.40;;
84616;SDS011;74846;51.126;16.944;2024-03-08T04:32:09;21.80;;;8.00;;
84616;SDS011;74846;51.126;16.944;2024-03-08T04:34:36;48.60;;;18.50;;
84616;SDS011;74846;51.126;16.944;2024-03-08T04:37:03;58.10;;;21.40;;
84616;SDS011;74846;51.126;16.944;2024-03-08T04:39:31;53.20;;;21.40;;
84616;SDS011;74846;51.126;16.944;2024-03-08T04:41:58;72.80;;;26.00;;
84616;SDS011;74846;51.126;16.944;2024-03-08T04:44:32;66.10;;;22.30;;
84616;SDS011;74846;51.126;16.944;2024-03-08T04:47:00;61.60;;;22.00;;
84616;SDS011;74846;51.126;16.944;2024-03-08T04:49:26;58.60;;;22.20;;
84616;SDS011;74846;51.126;16.944;2024-03-08T04:51:54;44.30;;;18.70;;
84616;SDS011;74846;51.126;16.944;2024-03-08T04:54:21;57.90;;;22.10;;
84616;SDS011;74846;51.126;16.944;2024-03-08T04:56:48;53.10;;;20.00;;
84616;SDS011;74846;51.126;16.944;2024-03-08T04:59:14;61.90;;;22.70;;
84616;SDS011;74846;51.126;16.944;2024-03-08T05:01:41;62.20;;;24.40;;
84616;SDS011;74846;51.126;16.944;2024-03-08T05:04:08;64.90;;;22.90;;
84616;SDS011;74846;51.126;16.944;2024-03-08T05:06:36;46.90;;;18.40;;
84616;SDS011;74846;51.126;16.944;2024-03-08T05:09:02;55.90;;;21.20;;
84616;SDS011;74846;51.126;16.944;2024-03-08T05:11:42;63.90;;;23.60;;
84616;SDS011;74846;51.126;16.944;2024-03-08T05:14:13;65.40;;;23.50;;
84616;SDS011;74846;51.126;16.944;2024-03-08T05:16:46;62.20;;;23.80;;
84616;SDS011;74846;51.126;16.944;2024-03-08T05:19:16;72.80;;;26.40;;
84616;SDS011;74846;51.126;16.944;2024-03-08T05:21:44;63.70;;;25.30;;
84616;SDS011;74846;51.126;16.944;2024-03-08T05:24:11;61.60;;;23.90;;
84616;SDS011;74846;51.126;16.944;2024-03-08T05:26:39;57.70;;;23.00;;
84616;SDS011;74846;51.126;16.944;2024-03-08T05:29:06;62.50;;;23.10;;
84616;SDS011;74846;51.126;16.944;2024-03-08T05:31:36;59.60;;;23.50;;
84616;SDS011;74846;51.126;16.944;2024-03-08T05:34:09;60.60;;;22.80;;
84616;SDS011;74846;51.126;16.944;2024-03-08T05:36:36;51.60;;;18.40;;
84616;SDS011;74846;51.126;16.944;2024-03-08T05:39:03;58.20;;;23.70;;
84616;SDS011;74846;51.126;16.944;2024-03-08T05:41:32;65.80;;;26.10;;
84616;SDS011;74846;51.126;16.944;2024-03-08T05:43:59;63.20;;;23.60;;
84616;SDS011;74846;51.126;16.944;2024-03-08T05:46:25;58.90;;;22.20;;
84616;SDS011;74846;51.126;16.944;2024-03-08T05:48:52;59.90;;;23.10;;
84616;SDS011;74846;51.126;16.944;2024-03-08T05:51:23;65.00;;;25.10;;
84616;SDS011;74846;51.126;16.944;2024-03-08T05:53:50;73.80;;;27.50;;
84616;SDS011;74846;51.126;16.944;2024-03-08T05:56:19;60.20;;;21.30;;
84616;SDS011;74846;51.126;16.944;2024-03-08T05:58:46;66.20;;;24.60;;
84616;SDS011;74846;51.126;16.944;2024-03-08T06:01:14;64.70;;;23.00;;
84616;SDS011;74846;51.126;16.944;2024-03-08T06:03:41;58.60;;;21.30;;
84616;SDS011;74846;51.126;16.944;2024-03-08T06:06:12;62.30;;;24.30;;
84616;SDS011;74846;51.126;16.944;2024-03-08T06:08:39;60.50;;;21.60;;
84616;SDS011;74846;51.126;16.944;2024-03-08T06:11:06;63.20;;;21.90;;
84616;SDS011;74846;51.126;16.944;2024-03-08T06:13:33;58.50;;;22.70;;
84616;SDS011;74846;51.126;16.944;2024-03-08T06:16:00;62.00;;;23.50;;
84616;SDS011;74846;51.126;16.944;2024-03-08T06:18:30;51.90;;;21.70;;
84616;SDS011;74846;51.126;16.944;2024-03-08T06:20:57;58.40;;;22.80;;
84616;SDS011;74846;51.126;16.944;2024-03-08T06:23:24;61.00;;;22.50;;
84616;SDS011;74846;51.126;16.944;2024-03-08T06:25:51;66.10;;;22.20;;
84616;SDS011;74846;51.126;16.944;2024-03-08T06:28:17;61.50;;;23.20;;
84616;SDS011;74846;51.126;16.944;2024-03-08T06:30:44;52.50;;;20.60;;
84616;SDS011;74846;51.126;16.944;2024-03-08T06:33:11;60.70;;;23.60;;
84616;SDS011;74846;51.126;16.944;2024-03-08T06:35:37;63.90;;;25.80;;
84616;SDS011;74846;51.126;16.944;2024-03-08T06:38:04;63.50;;;23.00;;
84616;SDS011;74846;51.126;16.944;2024-03-08T06:40:31;50.60;;;20.60;;
84616;SDS011;74846;51.126;16.944;2024-03-08T06:42:57;57.30;;;21.40;;
84616;SDS011;74846;51.126;16.944;2024-03-08T06:45:24;60.80;;;23.30;;
84616;SDS011;74846;51.126;16.944;2024-03-08T06:47:52;53.70;;;20.70;;
84616;SDS011;74846;51.126;16.944;2024-03-08T06:50:18;60.70;;;24.50;;
84616;SDS011;74846;51.126;16.944;2024-03-08T06:52:45;62.90;;;25.70;;
84616;SDS011;74846;51.126;16.944;2024-03-08T06:55:16;42.30;;;17.50;;
84616;SDS011;74846;51.126;16.944;2024-03-08T06:57:43;58.30;;;24.20;;
84616;SDS011;74846;51.126;16.944;2024-03-08T07:00:10;54.30;;;23.10;;
84616;SDS011;74846;51.126;16.944;2024-03-08T07:02:40;60.60;;;22.60;;
84616;SDS011;74846;51.126;16.944;2024-03-08T07:05:08;45.70;;;18.90;;
84616;SDS011;74846;51.126;16.944;2024-03-08T07:07:36;49.60;;;20.80;;
84616;SDS011;74846;51.126;16.944;2024-03-08T07:10:03;67.60;;;25.10;;
84616;SDS011;74846;51.126;16.944;2024-03-08T07:12:30;56.40;;;23.10;;
84616;SDS011;74846;51.126;16.944;2024-03-08T07:14:57;52.40;;;21.70;;
84616;SDS011;74846;51.126;16.944;2024-03-08T07:17:24;63.20;;;22.40;;
84616;SDS011;74846;51.126;16.944;2024-03-08T07:19:51;62.40;;;24.40;;
84616;SDS011;74846;51.126;16.944;2024-03-08T07:22:17;69.10;;;25.00;;
84616;SDS011;74846;51.126;16.944;2024-03-08T07:24:44;55.20;;;22.40;;
84616;SDS011;74846;51.126;16.944;2024-03-08T07:27:36;64.30;;;25.40;;
84616;SDS011;74846;51.126;16.944;2024-03-08T07:30:03;69.40;;;29.60;;
84616;SDS011;74846;51.126;16.944;2024-03-08T07:32:32;52.60;;;22.10;;
84616;SDS011;74846;51.126;16.944;2024-03-08T07:35:00;72.00;;;26.40;;
84616;SDS011;74846;51.126;16.944;2024-03-08T07:37:31;59.80;;;22.70;;
84616;SDS011;74846;51.126;16.944;2024-03-08T07:39:57;62.40;;;25.20;;
84616;SDS011;74846;51.126;16.944;2024-03-08T07:42:24;57.60;;;23.60;;
84616;SDS011;74846;51.126;16.944;2024-03-08T07:44:51;75.50;;;26.70;;
84616;SDS011;74846;51.126;16.944;2024-03-08T07:47:18;58.00;;;20.50;;
84616;SDS011;74846;51.126;16.944;2024-03-08T07:49:48;49.80;;;20.60;;
84616;SDS011;74846;51.126;16.944;2024-03-08T07:52:15;69.10;;;27.90;;
84616;SDS011;74846;51.126;16.944;2024-03-08T07:54:44;66.40;;;26.70;;
84616;SDS011;74846;51.126;16.944;2024-03-08T07:57:11;62.30;;;24.30;;
84616;SDS011;74846;51.126;16.944;2024-03-08T07:59:37;58.70;;;25.40;;
84616;SDS011;74846;51.126;16.944;2024-03-08T08:02:04;49.50;;;20.90;;
84616;SDS011;74846;51.126;16.944;2024-03-08T08:04:31;67.00;;;27.00;;
84616;SDS011;74846;51.126;16.944;2024-03-08T08:06:58;61.70;;;24.30;;
84616;SDS011;74846;51.126;16.944;2024-03-08T08:09:25;69.60;;;27.30;;
84616;SDS011;74846;51.126;16.944;2024-03-08T08:11:55;51.90;;;20.00;;
84616;SDS011;74846;51.126;16.944;2024-03-08T08:14:22;77.80;;;30.90;;
84616;SDS011;74846;51.126;16.944;2024-03-08T08:16:48;74.60;;;28.50;;
84616;SDS011;74846;51.126;16.944;2024-03-08T08:19:18;56.10;;;22.90;;
84616;SDS011;74846;51.126;16.944;2024-03-08T08:21:45;56.50;;;24.20;;
84616;SDS011;74846;51.126;16.944;2024-03-08T08:24:12;61.60;;;25.50;;
84616;SDS011;74846;51.126;16.944;2024-03-08T08:26:39;62.90;;;25.50;;
84616;SDS011;74846;51.126;16.944;2024-03-08T08:29:07;58.70;;;25.80;;
84616;SDS011;74846;51.126;16.944;2024-03-08T08:31:34;64.40;;;25.30;;
84616;SDS011;74846;51.126;16.944;2024-03-08T08:34:00;71.30;;;28.70;;
84616;SDS011;74846;51.126;16.944;2024-03-08T08:36:29;64.20;;;26.80;;
84616;SDS011;74846;51.126;16.944;2024-03-08T08:38:56;68.90;;;28.30;;
84616;SDS011;74846;51.126;16.944;2024-03-08T08:41:24;52.30;;;21.20;;
84616;SDS011;74846;51.126;16.944;2024-03-08T08:43:51;64.40;;;24.90;;
84616;SDS011;74846;51.126;16.944;2024-03-08T08:46:34;49.70;;;20.40;;
84616;SDS011;74846;51.126;16.944;2024-03-08T08:49:05;63.90;;;24.30;;
84616;SDS011;74846;51.126;16.944;2024-03-08T08:51:37;67.10;;;26.60;;
84616;SDS011;74846;51.126;16.944;2024-03-08T08:54:03;51.10;;;21.60;;
84616;SDS011;74846;51.126;16.944;2024-03-08T08:56:30;64.70;;;25.90;;
84616;SDS011;74846;51.126;16.944;2024-03-08T08:58:56;60.10;;;23.50;;
84616;SDS011;74846;51.126;16.944;2024-03-08T09:01:24;51.70;;;22.60;;
84616;SDS011;74846;51.126;16.944;2024-03-08T09:03:51;41.00;;;17.40;;
84616;SDS011;74846;51.126;16.944;2024-03-08T09:06:18;52.30;;;21.30;;
84616;SDS011;74846;51.126;16.944;2024-03-08T09:08:44;47.60;;;19.90;;
84616;SDS011;74846;51.126;16.944;2024-03-08T09:11:12;45.20;;;19.30;;
84616;SDS011;74846;51.126;16.944;2024-03-08T09:13:39;46.40;;;20.90;;
84616;SDS011;74846;51.126;16.944;2024-03-08T09:16:05;43.80;;;18.00;;
84616;SDS011;74846;51.126;16.944;2024-03-08T09:18:32;50.20;;;20.30;;
84616;SDS011;74846;51.126;16.944;2024-03-08T09:20:59;51.00;;;21.10;;
84616;SDS011;74846;51.126;16.944;2024-03-08T09:23:26;48.20;;;20.50;;
84616;SDS011;74846;51.126;16.944;2024-03-08T09:25:56;57.00;;;24.20;;
84616;SDS011;74846;51.126;16.944;2024-03-08T09:28:23;30.50;;;12.70;;
84616;SDS011;74846;51.126;16.944;2024-03-08T09:30:51;51.60;;;22.00;;
84616;SDS011;74846;51.126;16.944;2024-03-08T09:33:26;49.70;;;19.90;;
84616;SDS011;74846;51.126;16.944;2024-03-08T09:35:54;43.40;;;20.10;;
84616;SDS011;74846;51.126;16.944;2024-03-08T09:38:21;50.00;;;19.80;;
84616;SDS011;74846;51.126;16.944;2024-03-08T09:40:47;49.60;;;20.50;;
84616;SDS011;74846;51.126;16.944;2024-03-08T09:43:14;46.40;;;19.00;;
84616;SDS011;74846;51.126;16.944;2024-03-08T09:45:41;46.10;;;20.20;;
84616;SDS011;74846;51.126;16.944;2024-03-08T09:48:11;33.60;;;14.00;;
84616;SDS011;74846;51.126;16.944;2024-03-08T09:50:39;49.50;;;21.60;;
84616;SDS011;74846;51.126;16.944;2024-03-08T09:53:07;45.30;;;19.90;;
84616;SDS011;74846;51.126;16.944;2024-03-08T09:55:38;35.60;;;13.40;;
84616;SDS011;74846;51.126;16.944;2024-03-08T10:00:43;47.60;;;21.50;;
84616;SDS011;74846;51.126;16.944;2024-03-08T10:03:10;50.20;;;21.40;;
84616;SDS011;74846;51.126;16.944;2024-03-08T10:05:41;21.70;;;9.10;;
84616;SDS011;74846;51.126;16.944;2024-03-08T10:08:08;51.10;;;22.20;;
84616;SDS011;74846;51.126;16.944;2024-03-08T10:10:35;44.10;;;18.50;;
84616;SDS011;74846;51.126;16.944;2024-03-08T10:13:02;44.20;;;19.40;;
84616;SDS011;74846;51.126;16.944;2024-03-08T10:15:29;45.00;;;20.60;;
84616;SDS011;74846;51.126;16.944;2024-03-08T10:17:55;34.60;;;15.80;;
84616;SDS011;74846;51.126;16.944;2024-03-08T10:20:23;38.60;;;16.20;;
84616;SDS011;74846;51.126;16.944;2024-03-08T10:22:50;46.30;;;19.50;;
84616;SDS011;74846;51.126;16.944;2024-03-08T10:25:32;39.70;;;19.60;;
84616;SDS011;74846;51.126;16.944;2024-03-08T10:28:02;48.20;;;21.90;;
84616;SDS011;74846;51.126;16.944;2024-03-08T10:30:31;44.10;;;19.30;;
84616;SDS011;74846;51.126;16.944;2024-03-08T10:32:58;40.60;;;17.70;;
84616;SDS011;74846;51.126;16.944;2024-03-08T10:35:25;49.10;;;21.40;;
84616;SDS011;74846;51.126;16.944;2024-03-08T10:37:53;33.80;;;15.90;;
84616;SDS011;74846;51.126;16.944;2024-03-08T10:40:26;38.20;;;17.20;;
84616;SDS011;74846;51.126;16.944;2024-03-08T10:42:57;34.30;;;15.80;;
84616;SDS011;74846;51.126;16.944;2024-03-08T10:51:05;37.90;;;17.50;;
84616;SDS011;74846;51.126;16.944;2024-03-08T10:53:33;40.00;;;17.80;;
84616;SDS011;74846;51.126;16.944;2024-03-08T10:56:00;34.50;;;16.20;;
84616;SDS011;74846;51.126;16.944;2024-03-08T10:58:28;43.00;;;19.30;;
84616;SDS011;74846;51.126;16.944;2024-03-08T11:00:55;39.40;;;18.00;;
84616;SDS011;74846;51.126;16.944;2024-03-08T11:06:18;33.90;;;14.90;;
84616;SDS011;74846;51.126;16.944;2024-03-08T11:09:11;32.20;;;14.20;;
84616;SDS011;74846;51.126;16.944;2024-03-08T11:12:17;28.00;;;13.90;;
84616;SDS011;74846;51.126;16.944;2024-03-08T11:14:56;36.30;;;16.60;;
84616;SDS011;74846;51.126;16.944;2024-03-08T11:19:55;34.10;;;16.70;;
84616;SDS011;74846;51.126;16.944;2024-03-08T11:22:28;29.10;;;15.40;;
84616;SDS011;74846;51.126;16.944;2024-03-08T11:25:08;32.10;;;15.20;;
84616;SDS011;74846;51.126;16.944;2024-03-08T11:27:36;28.50;;;14.00;;
84616;SDS011;74846;51.126;16.944;2024-03-08T11:30:06;24.40;;;13.90;;
84616;SDS011;74846;51.126;16.944;2024-03-08T11:32:46;30.20;;;13.60;;
84616;SDS011;74846;51.126;16.944;2024-03-08T11:35:19;30.70;;;14.80;;
84616;SDS011;74846;51.126;16.944;2024-03-08T11:37:47;32.40;;;14.90;;
84616;SDS011;74846;51.126;16.944;2024-03-08T11:40:14;31.30;;;16.10;;
84616;SDS011;74846;51.126;16.944;2024-03-08T11:42:46;23.10;;;11.70;;
84616;SDS011;74846;51.126;16.944;2024-03-08T11:45:14;26.10;;;12.70;;
84616;SDS011;74846;51.126;16.944;2024-03-08T11:47:43;29.50;;;14.30;;
84616;SDS011;74846;51.126;16.944;2024-03-08T11:50:15;28.40;;;14.00;;
84616;SDS011;74846;51.126;16.944;2024-03-08T11:52:43;27.10;;;14.80;;
84616;SDS011;74846;51.126;16.944;2024-03-08T11:55:10;26.20;;;12.50;;
84616;SDS011;74846;51.126;16.944;2024-03-08T11:57:39;25.10;;;12.30;;
84616;SDS011;74846;51.126;16.944;2024-03-08T12:00:05;20.00;;;10.10;;
84616;SDS011;74846;51.126;16.944;2024-03-08T12:02:33;26.40;;;12.30;;
84616;SDS011;74846;51.126;16.944;2024-03-08T12:05:04;21.10;;;11.10;;
84616;SDS011;74846;51.126;16.944;2024-03-08T12:07:42;21.40;;;10.40;;
84616;SDS011;74846;51.126;16.944;2024-03-08T12:10:19;25.00;;;11.90;;
84616;SDS011;74846;51.126;16.944;2024-03-08T12:12:51;20.70;;;10.10;;
84616;SDS011;74846;51.126;16.944;2024-03-08T12:15:20;19.70;;;9.80;;
84616;SDS011;74846;51.126;16.944;2024-03-08T12:17:49;23.80;;;12.10;;
84616;SDS011;74846;51.126;16.944;2024-03-08T12:23:00;27.90;;;13.00;;
84616;SDS011;74846;51.126;16.944;2024-03-08T12:25:30;24.50;;;12.40;;
84616;SDS011;74846;51.126;16.944;2024-03-08T12:28:07;23.00;;;11.20;;
84616;SDS011;74846;51.126;16.944;2024-03-08T12:30:49;24.30;;;12.30;;
84616;SDS011;74846;51.126;16.944;2024-03-08T12:33:21;21.40;;;10.70;;
84616;SDS011;74846;51.126;16.944;2024-03-08T12:35:52;19.60;;;9.50;;
84616;SDS011;74846;51.126;16.944;2024-03-08T12:38:23;24.70;;;12.10;;
84616;SDS011;74846;51.126;16.944;2024-03-08T12:40:54;22.60;;;11.50;;
84616;SDS011;74846;51.126;16.944;2024-03-08T12:43:23;24.40;;;11.20;;
84616;SDS011;74846;51.126;16.944;2024-03-08T12:45:49;24.00;;;13.20;;
84616;SDS011;74846;51.126;16.944;2024-03-08T12:48:17;21.20;;;11.20;;
84616;SDS011;74846;51.126;16.944;2024-03-08T12:50:45;21.00;;;11.00;;
84616;SDS011;74846;51.126;16.944;2024-03-08T12:53:14;23.10;;;11.50;;
84616;SDS011;74846;51.126;16.944;2024-03-08T12:55:41;23.60;;;12.10;;
84616;SDS011;74846;51.126;16.944;2024-03-08T12:58:07;24.50;;;11.50;;
84616;SDS011;74846;51.126;16.944;2024-03-08T13:00:34;29.80;;;13.40;;
84616;SDS011;74846;51.126;16.944;2024-03-08T13:03:02;28.00;;;14.20;;
84616;SDS011;74846;51.126;16.944;2024-03-08T13:05:29;21.80;;;11.30;;
84616;SDS011;74846;51.126;16.944;2024-03-08T13:07:56;22.70;;;11.30;;
84616;SDS011;74846;51.126;16.944;2024-03-08T13:10:23;26.20;;;11.60;;
84616;SDS011;74846;51.126;16.944;2024-03-08T13:12:50;25.00;;;12.20;;
84616;SDS011;74846;51.126;16.944;2024-03-08T13:15:20;21.70;;;12.00;;
84616;SDS011;74846;51.126;16.944;2024-03-08T13:17:47;22.00;;;11.10;;
84616;SDS011;74846;51.126;16.944;2024-03-08T13:20:15;25.60;;;12.30;;
84616;SDS011;74846;51.126;16.944;2024-03-08T13:22:56;23.60;;;11.90;;
84616;SDS011;74846;51.126;16.944;2024-03-08T13:25:25;24.10;;;12.50;;
84616;SDS011;74846;51.126;16.944;2024-03-08T13:27:52;22.60;;;12.70;;
84616;SDS011;74846;51.126;16.944;2024-03-08T13:30:20;25.40;;;12.80;;
84616;SDS011;74846;51.126;16.944;2024-03-08T13:32:51;23.40;;;11.80;;
84616;SDS011;74846;51.126;16.944;2024-03-08T13:35:19;26.40;;;13.40;;
84616;SDS011;74846;51.126;16.944;2024-03-08T13:37:51;24.70;;;12.60;;
84616;SDS011;74846;51.126;16.944;2024-03-08T13:40:17;29.20;;;14.20;;
84616;SDS011;74846;51.126;16.944;2024-03-08T13:42:46;26.30;;;14.60;;
84616;SDS011;74846;51.126;16.944;2024-03-08T13:45:15;28.10;;;12.60;;
84616;SDS011;74846;51.126;16.944;2024-03-08T13:47:50;21.10;;;12.30;;
84616;SDS011;74846;51.126;16.944;2024-03-08T13:50:20;24.20;;;10.50;;
84616;SDS011;74846;51.126;16.944;2024-03-08T13:52:50;22.60;;;11.60;;
84616;SDS011;74846;51.126;16.944;2024-03-08T13:55:20;26.30;;;12.90;;
84616;SDS011;74846;51.126;16.944;2024-03-08T13:57:54;25.00;;;13.00;;
84616;SDS011;74846;51.126;16.944;2024-03-08T14:00:20;27.30;;;14.60;;
84616;SDS011;74846;51.126;16.944;2024-03-08T14:02:49;23.10;;;12.00;;
84616;SDS011;74846;51.126;16.944;2024-03-08T14:05:16;21.10;;;11.10;;
84616;SDS011;74846;51.126;16.944;2024-03-08T14:07:45;26.50;;;14.40;;
84616;SDS011;74846;51.126;16.944;2024-03-08T14:10:15;24.90;;;12.40;;
84616;SDS011;74846;51.126;16.944;2024-03-08T14:12:43;24.70;;;12.70;;
84616;SDS011;74846;51.126;16.944;2024-03-08T14:15:11;20.20;;;12.10;;
84616;SDS011;74846;51.126;16.944;2024-03-08T14:17:39;22.00;;;12.00;;
84616;SDS011;74846;51.126;16.944;2024-03-08T14:20:06;24.70;;;12.00;;
84616;SDS011;74846;51.126;16.944;2024-03-08T14:22:34;22.70;;;12.50;;
84616;SDS011;74846;51.126;16.944;2024-03-08T14:25:01;24.30;;;12.70;;
84616;SDS011;74846;51.126;16.944;2024-03-08T14:27:31;24.40;;;12.30;;
84616;SDS011;74846;51.126;16.944;2024-03-08T14:29:59;28.90;;;13.70;;
84616;SDS011;74846;51.126;16.944;2024-03-08T14:32:26;28.90;;;13.40;;